Time;durP1;ratioP1;P1;durP2;ratioP2;P2;SDS_P1;SDS_P2;PMS_P1;PMS_P2;Temp;Humidity;BMP_temperature;BMP_pressure;BME280_temperature;BME280_humidity;BME280_pressure;Samples;Min_cycle;Max_cycle;Signal;HPM_P1;HPM_P2
2022/08/29 00:00:07;;;;;;;8.50;5.72;;;;;;;14.19;100.00;97577.16;5045784;28;20051;-68
2022/08/29 00:02:44;;;;;;;12.57;6.55;;;;;;;14.11;100.00;97573.09;5046898;28;20444;-67
2022/08/29 00:05:11;;;;;;;12.65;5.95;;;;;;;14.11;100.00;97575.00;5047445;28;20060;-66
2022/08/29 00:07:38;;;;;;;10.30;5.90;;;;;;;14.16;100.00;97566.84;5046342;28;20041;-67
2022/08/29 00:10:05;;;;;;;9.23;5.97;;;;;;;14.26;100.00;97572.28;5047241;28;20041;-67
2022/08/29 00:12:32;;;;;;;9.95;5.38;;;;;;;14.14;100.00;97572.56;5047316;28;20041;-68
2022/08/29 00:14:59;;;;;;;10.18;6.65;;;;;;;14.07;100.00;97568.47;5050771;28;20055;-67
2022/08/29 00:17:25;;;;;;;9.60;6.10;;;;;;;14.09;100.00;97567.09;5047180;28;20045;-66
2022/08/29 00:19:52;;;;;;;11.23;6.18;;;;;;;14.07;100.00;97568.47;5046602;28;20247;-68
2022/08/29 00:22:18;;;;;;;10.07;6.15;;;;;;;14.02;100.00;97569.25;5048478;28;20492;-67
2022/08/29 00:24:45;;;;;;;10.68;6.13;;;;;;;13.95;100.00;97571.41;5047114;28;20045;-66
2022/08/29 00:27:11;;;;;;;8.60;6.25;;;;;;;13.90;100.00;97570.31;5045948;28;20516;-67
2022/08/29 00:29:38;;;;;;;11.25;5.97;;;;;;;13.95;100.00;97577.69;5046624;28;20134;-67
2022/08/29 00:32:05;;;;;;;8.80;6.05;;;;;;;13.86;100.00;97577.38;5046512;28;20044;-66
2022/08/29 00:34:32;;;;;;;11.05;6.20;;;;;;;13.84;100.00;97582.28;5046476;28;20496;-66
2022/08/29 00:36:58;;;;;;;7.85;5.57;;;;;;;13.81;100.00;97579.31;5046185;28;20600;-66
2022/08/29 00:39:25;;;;;;;9.55;6.35;;;;;;;13.77;100.00;97577.09;5046098;28;20045;-67
2022/08/29 00:41:52;;;;;;;8.05;5.80;;;;;;;13.73;100.00;97576.00;5046190;28;20116;-67
2022/08/29 00:44:18;;;;;;;10.90;6.63;;;;;;;13.52;100.00;97581.38;5046725;28;20048;-68
2022/08/29 00:46:49;;;;;;;10.40;6.32;;;;;;;13.42;100.00;97584.03;5047753;28;20167;-68
2022/08/29 00:49:28;;;;;;;9.10;6.53;;;;;;;13.37;100.00;97575.81;5046736;28;20463;-67
2022/08/29 00:52:02;;;;;;;8.80;6.45;;;;;;;13.48;100.00;97582.16;5048903;28;20284;-67
2022/08/29 00:54:29;;;;;;;9.88;6.85;;;;;;;13.51;100.00;97585.19;5045341;28;20041;-68
2022/08/29 00:56:57;;;;;;;10.25;6.38;;;;;;;13.47;100.00;97583.22;5046332;28;20041;-67
2022/08/29 00:59:30;;;;;;;13.90;6.93;;;;;;;13.39;100.00;97579.91;5045570;28;20059;-66
2022/08/29 01:01:57;;;;;;;8.45;6.15;;;;;;;13.39;100.00;97584.56;5045399;28;20037;-67
2022/08/29 01:04:24;;;;;;;11.05;6.68;;;;;;;13.40;100.00;97580.75;5045633;28;20049;-67
2022/08/29 01:06:52;;;;;;;11.10;5.65;;;;;;;13.46;100.00;97576.16;5046389;28;20091;-66
2022/08/29 01:09:20;;;;;;;9.68;6.43;;;;;;;13.47;100.00;97586.75;5039935;28;20262;-66
2022/08/29 01:14:33;;;;;;;11.23;5.90;;;;;;;13.47;100.00;97586.75;5039432;28;20148;-67
2022/08/29 01:17:07;;;;;;;10.57;5.95;;;;;;;13.50;100.00;97585.44;5046248;28;20054;-68
2022/08/29 01:20:02;;;;;;;9.15;5.85;;;;;;;13.36;100.00;97575.03;5045731;28;20045;-67
2022/08/29 01:22:43;;;;;;;11.25;6.07;;;;;;;13.35;100.00;97586.16;5048721;28;20037;-68
2022/08/29 01:25:22;;;;;;;9.27;5.68;;;;;;;13.43;100.00;97584.84;5045514;28;20045;-68
2022/08/29 01:28:02;;;;;;;11.65;5.70;;;;;;;13.43;100.00;97582.09;5045370;28;20072;-66
2022/08/29 01:30:29;;;;;;;10.20;5.35;;;;;;;13.29;100.00;97582.59;5045837;28;20047;-67
2022/08/29 01:32:56;;;;;;;11.10;5.82;;;;;;;13.29;100.00;97596.19;5045749;28;20067;-66
2022/08/29 01:35:24;;;;;;;9.13;5.55;;;;;;;13.34;100.00;97588.06;5045365;28;20049;-67
2022/08/29 01:37:50;;;;;;;10.48;5.95;;;;;;;13.31;100.00;97591.31;5046244;28;20056;-66
2022/08/29 01:40:18;;;;;;;8.02;5.47;;;;;;;13.25;100.00;97587.75;5045297;28;20049;-67
2022/08/29 01:42:45;;;;;;;11.35;6.43;;;;;;;13.24;100.00;97599.69;5045215;28;20053;-66
2022/08/29 01:45:11;;;;;;;9.05;5.70;;;;;;;13.21;100.00;97583.94;5051751;28;20056;-66
2022/08/29 01:47:39;;;;;;;8.15;5.93;;;;;;;13.13;100.00;97592.59;5049776;28;20041;-66
2022/08/29 01:50:12;;;;;;;8.63;5.80;;;;;;;13.15;100.00;97590.41;5036191;28;20107;-67
2022/08/29 01:52:40;;;;;;;8.23;5.28;;;;;;;13.28;100.00;97589.13;5048721;28;20060;-68
2022/08/29 01:55:07;;;;;;;7.47;5.25;;;;;;;13.11;100.00;97590.13;5044555;28;20098;-68
2022/08/29 01:57:37;;;;;;;11.20;6.00;;;;;;;13.04;100.00;97589.53;5041050;28;20053;-66
2022/08/29 02:00:06;;;;;;;9.98;5.28;;;;;;;13.12;100.00;97591.75;5025133;28;20116;-67
2022/08/29 02:02:32;;;;;;;10.70;5.72;;;;;;;13.14;100.00;97589.59;5040262;28;20336;-67
2022/08/29 02:04:59;;;;;;;10.02;5.32;;;;;;;13.19;100.00;97586.06;5045431;28;20091;-68
2022/08/29 02:07:26;;;;;;;7.95;4.85;;;;;;;13.28;100.00;97589.13;5044975;28;20041;-67
2022/08/29 02:09:52;;;;;;;10.50;5.35;;;;;;;13.19;100.00;97591.50;5045874;28;20041;-67
2022/08/29 02:12:19;;;;;;;7.22;5.25;;;;;;;13.12;100.00;97599.91;5045414;28;20056;-68
2022/08/29 02:14:47;;;;;;;11.23;5.25;;;;;;;13.15;100.00;97590.41;5047610;28;20045;-67
2022/08/29 02:17:13;;;;;;;10.10;5.25;;;;;;;13.16;100.00;97600.19;5047206;28;20041;-68
2022/08/29 02:19:41;;;;;;;8.02;5.28;;;;;;;13.09;100.00;97591.47;5044596;28;20044;-66
2022/08/29 02:22:08;;;;;;;9.70;5.60;;;;;;;13.03;100.00;97593.34;5048432;28;20540;-66
2022/08/29 02:24:35;;;;;;;13.55;5.32;;;;;;;12.99;100.00;97594.94;5045212;28;20056;-67
2022/08/29 02:27:02;;;;;;;9.80;5.07;;;;;;;13.07;100.00;97594.44;5039874;28;20041;-68
2022/08/29 02:29:29;;;;;;;11.60;5.90;;;;;;;13.11;100.00;97592.00;5045193;28;20044;-65
2022/08/29 02:32:06;;;;;;;9.63;5.05;;;;;;;13.05;100.00;97587.63;5044704;28;20045;-66
2022/08/29 02:34:33;;;;;;;9.68;4.90;;;;;;;13.04;100.00;97584.09;5045498;28;20067;-66
2022/08/29 02:37:00;;;;;;;8.85;5.88;;;;;;;13.04;100.00;97586.00;5045401;28;20460;-67
2022/08/29 02:39:27;;;;;;;8.70;4.90;;;;;;;12.95;100.00;97593.81;5044279;28;20041;-66
2022/08/29 02:41:53;;;;;;;9.43;5.60;;;;;;;12.93;100.00;97590.56;5045341;28;20041;-67
2022/08/29 02:44:20;;;;;;;9.18;5.47;;;;;;;12.74;100.00;97599.13;5044234;28;20045;-68
2022/08/29 02:46:47;;;;;;;8.30;5.32;;;;;;;12.51;100.00;97598.41;5063606;28;20045;-66
2022/08/29 02:49:14;;;;;;;9.40;5.35;;;;;;;12.41;100.00;97593.69;5054143;28;20376;-66
2022/08/29 02:51:41;;;;;;;11.80;5.65;;;;;;;12.24;100.00;97585.69;5048405;28;20037;-66
2022/08/29 02:54:08;;;;;;;11.75;5.35;;;;;;;12.45;100.00;97588.56;5047070;28;20041;-66
2022/08/29 02:56:35;;;;;;;8.15;5.13;;;;;;;12.60;100.00;97587.88;5047506;28;20295;-66
2022/08/29 02:59:02;;;;;;;9.18;5.55;;;;;;;12.61;100.00;97584.09;5047608;28;20432;-67
2022/08/29 03:01:30;;;;;;;9.52;5.20;;;;;;;12.67;100.00;97580.31;5048273;28;20615;-68
2022/08/29 03:03:57;;;;;;;9.27;5.25;;;;;;;12.73;100.00;97582.00;5048432;28;20047;-67
2022/08/29 03:06:23;;;;;;;7.35;5.38;;;;;;;12.72;100.00;97585.00;5047991;28;20447;-67
2022/08/29 03:08:50;;;;;;;10.07;5.65;;;;;;;12.74;100.00;97582.81;5047654;28;20049;-66
2022/08/29 03:11:20;;;;;;;9.70;5.47;;;;;;;12.71;100.00;97580.59;5048376;28;20049;-67
2022/08/29 03:13:46;;;;;;;9.80;5.95;;;;;;;12.55;100.00;97587.81;5048388;28;20059;-68
2022/08/29 03:16:13;;;;;;;7.95;5.47;;;;;;;12.66;100.00;97589.56;5052430;28;20049;-67
2022/08/29 03:18:40;;;;;;;7.80;4.93;;;;;;;12.67;100.00;97587.63;5048225;28;20467;-66
2022/08/29 03:21:19;;;;;;;9.93;5.55;;;;;;;12.64;100.00;97580.03;5052282;28;20052;-67
2022/08/29 03:23:47;;;;;;;9.88;5.10;;;;;;;12.63;100.00;97583.84;5048029;28;20036;-67
2022/08/29 03:26:14;;;;;;;11.20;5.72;;;;;;;12.58;100.00;97576.47;5047711;28;20045;-68
2022/08/29 03:28:40;;;;;;;14.38;5.88;;;;;;;12.42;100.00;97581.75;5047779;28;20041;-67
2022/08/29 03:31:07;;;;;;;9.70;5.53;;;;;;;12.44;100.00;97587.75;5047702;28;20045;-67
2022/08/29 03:33:34;;;;;;;8.15;5.20;;;;;;;12.38;100.00;97586.06;5047377;28;20064;-67
2022/08/29 03:36:01;;;;;;;9.05;5.05;;;;;;;12.48;100.00;97588.88;5047366;28;20423;-67
2022/08/29 03:38:29;;;;;;;11.52;4.75;;;;;;;12.54;100.00;97581.59;5047492;28;20106;-67
2022/08/29 03:40:56;;;;;;;8.95;5.05;;;;;;;12.51;100.00;97586.72;5047387;28;20466;-67
2022/08/29 03:43:23;;;;;;;13.23;5.32;;;;;;;12.46;100.00;97582.88;5047812;28;20124;-66
2022/08/29 03:45:50;;;;;;;10.38;6.55;;;;;;;12.44;100.00;97582.34;5058005;28;20072;-68
2022/08/29 03:48:17;;;;;;;12.25;5.90;;;;;;;12.37;100.00;97579.00;5050176;28;20041;-66
2022/08/29 03:50:43;;;;;;;11.50;5.38;;;;;;;12.33;100.00;97583.31;5050895;28;20523;-67
2022/08/29 03:53:10;;;;;;;8.48;4.90;;;;;;;12.37;100.00;97581.72;5051413;28;20052;-67
2022/08/29 03:55:37;;;;;;;9.48;5.35;;;;;;;12.35;100.00;97584.69;5047584;28;20098;-66
2022/08/29 03:58:03;;;;;;;9.63;5.65;;;;;;;12.36;100.00;97585.50;5047636;28;20041;-66
2022/08/29 04:00:31;;;;;;;11.70;5.93;;;;;;;12.40;100.00;97592.06;5046789;28;20501;-66
2022/08/29 04:02:58;;;;;;;9.43;4.90;;;;;;;12.41;100.00;97593.69;5046998;28;20040;-66
2022/08/29 04:05:24;;;;;;;9.23;5.35;;;;;;;12.45;100.00;97591.28;5046267;28;20053;-68
2022/08/29 04:07:54;;;;;;;9.48;5.28;;;;;;;12.43;100.00;97591.56;5046789;28;20037;-67
2022/08/29 04:10:30;;;;;;;9.75;4.60;;;;;;;12.47;100.00;97589.97;5046776;28;20064;-67
2022/08/29 04:12:58;;;;;;;7.47;4.32;;;;;;;12.46;100.00;97590.22;5046694;28;20443;-67
2022/08/29 04:15:26;;;;;;;9.00;5.28;;;;;;;12.31;100.00;97596.34;5051213;28;20479;-68
2022/08/29 04:17:56;;;;;;;9.05;4.80;;;;;;;12.23;100.00;97594.88;5047132;28;20123;-67
2022/08/29 04:20:28;;;;;;;12.07;5.43;;;;;;;12.20;100.00;97601.66;5047241;28;20043;-67
2022/08/29 04:22:56;;;;;;;10.90;4.93;;;;;;;12.15;100.00;97596.19;5028204;28;20397;-67
2022/08/29 04:25:24;;;;;;;9.27;5.43;;;;;;;12.11;100.00;97603.19;5045984;28;20295;-66
2022/08/29 04:27:52;;;;;;;9.68;5.40;;;;;;;12.23;100.00;97603.88;5046841;28;20098;-67
2022/08/29 04:30:21;;;;;;;13.05;5.97;;;;;;;12.13;100.00;97605.66;5046280;28;20514;-67
2022/08/29 04:32:48;;;;;;;11.50;6.53;;;;;;;12.08;100.00;97601.00;5047561;28;20055;-67
2022/08/29 04:35:15;;;;;;;9.80;5.88;;;;;;;12.05;100.00;97601.50;5046911;28;20439;-66
2022/08/29 04:37:43;;;;;;;10.95;5.85;;;;;;;11.94;100.00;97614.13;5046375;28;20053;-67
2022/08/29 04:40:14;;;;;;;8.75;6.35;;;;;;;11.91;100.00;97615.44;5046618;28;20524;-66
2022/08/29 04:42:41;;;;;;;10.38;5.97;;;;;;;11.93;100.00;97610.59;5046376;28;20102;-66
2022/08/29 04:45:11;;;;;;;8.57;5.25;;;;;;;12.04;100.00;97607.97;5046342;28;20045;-65
2022/08/29 04:47:38;;;;;;;9.98;5.00;;;;;;;11.96;100.00;97610.09;5046437;28;20122;-66
2022/08/29 04:50:07;;;;;;;9.93;5.80;;;;;;;11.84;100.00;97607.50;5046389;28;20041;-67
2022/08/29 04:52:33;;;;;;;8.85;5.47;;;;;;;11.81;100.00;97616.16;5056328;28;20091;-66
2022/08/29 04:55:00;;;;;;;9.10;5.70;;;;;;;11.83;100.00;97611.28;5046236;28;20308;-66
2022/08/29 04:57:26;;;;;;;15.00;6.35;;;;;;;11.86;100.00;97611.88;5044796;28;20068;-67
2022/08/29 04:59:58;;;;;;;10.65;6.57;;;;;;;11.88;100.00;97613.25;5026311;28;20034;-67
2022/08/29 05:02:26;;;;;;;8.07;5.47;;;;;;;11.89;100.00;97616.78;5040741;28;20048;-66
2022/08/29 05:04:55;;;;;;;8.73;5.40;;;;;;;11.87;100.00;97627.88;5046717;28;20060;-66
2022/08/29 05:07:25;;;;;;;10.45;6.18;;;;;;;11.96;100.00;97623.66;5045834;28;20041;-66
2022/08/29 05:09:58;;;;;;;9.88;5.32;;;;;;;12.08;100.00;97630.84;5046411;28;20032;-66
2022/08/29 05:12:26;;;;;;;8.55;5.00;;;;;;;12.13;100.00;97633.63;5046394;28;20605;-67
2022/08/29 05:14:53;;;;;;;8.50;5.00;;;;;;;12.15;100.00;97633.34;5049034;28;20045;-68
2022/08/29 05:17:21;;;;;;;9.57;5.10;;;;;;;12.15;100.00;97639.63;5046520;28;20057;-67
2022/08/29 05:19:48;;;;;;;8.95;5.28;;;;;;;12.16;100.00;97632.31;5045141;28;20412;-67
2022/08/29 05:22:16;;;;;;;9.45;6.20;;;;;;;12.23;100.00;97632.91;5061714;28;20044;-70
2022/08/29 05:24:43;;;;;;;9.13;5.72;;;;;;;12.26;100.00;97629.69;5051252;28;20184;-69
2022/08/29 05:27:13;;;;;;;10.07;5.55;;;;;;;12.29;100.00;97631.06;5045306;28;20049;-67
2022/08/29 05:29:42;;;;;;;13.05;6.15;;;;;;;12.32;100.00;97633.25;5046004;28;20087;-68
2022/08/29 05:32:10;;;;;;;8.45;5.55;;;;;;;12.36;100.00;97632.47;5044511;28;20048;-67
2022/08/29 05:34:38;;;;;;;10.30;5.40;;;;;;;12.43;100.00;97626.88;5045770;28;20045;-68
2022/08/29 05:37:09;;;;;;;7.70;5.07;;;;;;;12.48;100.00;97626.06;5045524;28;20045;-68
2022/08/29 05:39:37;;;;;;;9.45;4.82;;;;;;;12.56;100.00;97627.50;5046056;28;20037;-70
2022/08/29 05:42:05;;;;;;;9.38;5.90;;;;;;;12.64;100.00;97624.28;5046008;28;20045;-69
2022/08/29 05:44:33;;;;;;;8.68;5.00;;;;;;;12.64;100.00;97634.38;5046079;28;20048;-68
2022/08/29 05:47:03;;;;;;;12.70;4.72;;;;;;;12.73;100.00;97630.09;5049754;28;20540;-68
2022/08/29 05:49:30;;;;;;;9.35;4.90;;;;;;;12.81;100.00;97629.59;5045838;28;20045;-68
2022/08/29 05:51:59;;;;;;;9.20;4.43;;;;;;;12.83;100.00;97629.34;5050270;28;20524;-68
2022/08/29 05:54:26;;;;;;;11.15;4.60;;;;;;;12.88;100.00;97645.69;5045484;28;20072;-70
2022/08/29 05:56:55;;;;;;;8.45;4.43;;;;;;;12.95;100.00;97642.75;5045544;28;20797;-67
2022/08/29 05:59:22;;;;;;;9.70;4.53;;;;;;;13.05;99.27;97644.72;5044602;28;20049;-68
2022/08/29 06:01:49;;;;;;;8.57;4.57;;;;;;;13.23;98.79;97657.09;5045121;28;20120;-68
2022/08/29 06:04:15;;;;;;;11.88;4.45;;;;;;;13.35;98.71;97657.66;5044959;28;20045;-69
2022/08/29 06:06:42;;;;;;;10.02;4.25;;;;;;;13.59;98.22;97662.75;5044325;28;20079;-69
2022/08/29 06:09:10;;;;;;;10.38;4.70;;;;;;;13.65;97.54;97652.69;5043657;28;20111;-68
2022/08/29 06:11:37;;;;;;;10.32;4.30;;;;;;;13.74;97.74;97661.16;5045255;28;20049;-68
2022/08/29 06:14:04;;;;;;;12.30;5.28;;;;;;;13.79;96.99;97663.94;5044832;28;20072;-70
2022/08/29 06:16:31;;;;;;;8.43;4.00;;;;;;;13.90;97.68;97660.13;5049582;28;20045;-68
2022/08/29 06:18:58;;;;;;;9.07;3.42;;;;;;;13.97;96.46;97664.53;5045442;28;20032;-68
2022/08/29 06:21:25;;;;;;;9.50;4.32;;;;;;;14.17;94.79;97661.88;5053834;28;20044;-69
2022/08/29 06:23:52;;;;;;;8.05;3.30;;;;;;;14.35;93.21;97664.34;5065636;28;20047;-69
2022/08/29 06:26:18;;;;;;;8.45;3.72;;;;;;;14.50;89.62;97672.56;5065786;28;20045;-69
2022/08/29 06:28:46;;;;;;;7.97;3.15;;;;;;;14.62;85.79;97666.84;5068074;28;20045;-68
2022/08/29 06:31:23;;;;;;;8.13;3.85;;;;;;;14.78;85.48;97658.72;5069368;28;20090;-68
2022/08/29 06:33:51;;;;;;;8.00;2.80;;;;;;;14.92;83.93;97667.97;5069282;28;20041;-69
2022/08/29 06:36:18;;;;;;;8.20;3.38;;;;;;;15.14;81.34;97664.13;5051074;28;20041;-68
2022/08/29 06:38:45;;;;;;;6.43;2.63;;;;;;;15.25;80.38;97672.31;5049149;28;20041;-70
2022/08/29 06:41:14;;;;;;;6.75;2.85;;;;;;;15.37;80.71;97674.75;5049014;28;20329;-67
2022/08/29 06:43:42;;;;;;;5.90;2.95;;;;;;;15.47;78.52;97677.44;5049188;28;20147;-71
2022/08/29 06:46:22;;;;;;;9.00;2.50;;;;;;;15.59;77.72;97674.44;5048661;28;20118;-68
2022/08/29 06:48:50;;;;;;;9.18;3.20;;;;;;;15.73;76.78;97672.72;5048892;28;20128;-70
2022/08/29 06:51:16;;;;;;;8.40;3.13;;;;;;;15.88;76.58;97681.16;5053669;28;20110;-68
2022/08/29 06:53:43;;;;;;;6.63;3.13;;;;;;;15.92;75.26;97672.09;5068782;28;20044;-68
2022/08/29 06:56:11;;;;;;;7.07;2.50;;;;;;;15.97;76.73;97674.88;5069020;28;20090;-69
2022/08/29 06:58:37;;;;;;;10.45;3.05;;;;;;;15.98;75.03;97681.97;5067672;28;20511;-68
2022/08/29 07:01:11;;;;;;;10.20;3.55;;;;;;;15.82;76.55;97680.34;5068664;28;20044;-68
2022/08/29 07:03:38;;;;;;;7.72;2.72;;;;;;;15.94;76.34;97682.75;5068902;28;20083;-71
2022/08/29 07:06:04;;;;;;;6.57;2.85;;;;;;;16.03;76.10;97683.03;5068595;28;20093;-69
2022/08/29 07:08:32;;;;;;;6.65;3.13;;;;;;;16.11;76.11;97680.50;5069178;28;20264;-68
2022/08/29 07:11:00;;;;;;;10.70;3.53;;;;;;;16.21;75.32;97685.13;5068040;28;20083;-68
2022/08/29 07:13:26;;;;;;;7.15;3.13;;;;;;;16.27;74.92;97685.09;5068712;28;20048;-68
2022/08/29 07:15:52;;;;;;;5.88;3.08;;;;;;;16.39;75.33;97693.75;5060828;28;20519;-69
2022/08/29 07:18:19;;;;;;;5.70;2.90;;;;;;;16.58;75.51;97687.66;5046088;28;20126;-68
2022/08/29 07:20:46;;;;;;;11.48;3.50;;;;;;;16.68;75.31;97690.31;5041564;28;20393;-68
2022/08/29 07:23:12;;;;;;;7.00;3.28;;;;;;;16.78;74.69;97692.94;5043169;28;20534;-69
2022/08/29 07:25:39;;;;;;;6.47;3.30;;;;;;;16.77;73.89;97696.00;5043654;28;20033;-69
2022/08/29 07:28:06;;;;;;;7.93;3.42;;;;;;;16.87;74.24;97695.06;5039652;28;20045;-68
2022/08/29 07:30:33;;;;;;;7.03;3.20;;;;;;;16.95;73.74;97699.94;5039894;28;20041;-69
2022/08/29 07:33:00;;;;;;;8.80;3.78;;;;;;;17.02;74.41;97692.22;5038291;28;20045;-68
2022/08/29 07:35:26;;;;;;;9.73;4.07;;;;;;;17.14;74.48;97700.09;5041302;28;20048;-68
2022/08/29 07:38:02;;;;;;;8.38;4.03;;;;;;;17.22;74.34;97698.66;5040638;28;20091;-69
2022/08/29 07:40:29;;;;;;;8.00;4.10;;;;;;;17.27;72.84;97697.78;5038742;28;20056;-68
2022/08/29 07:42:56;;;;;;;6.28;2.90;;;;;;;17.34;73.06;97698.28;5040114;28;20044;-69
2022/08/29 07:45:22;;;;;;;7.18;3.75;;;;;;;17.43;73.12;97695.72;5039655;28;20059;-68
2022/08/29 07:47:48;;;;;;;7.85;3.40;;;;;;;17.49;73.57;97704.69;5039522;28;20122;-68
2022/08/29 07:50:15;;;;;;;9.57;3.75;;;;;;;17.61;73.29;97694.16;5041599;28;20045;-70
2022/08/29 07:52:42;;;;;;;7.50;3.90;;;;;;;17.57;72.63;97695.06;5039307;28;20048;-69
2022/08/29 07:55:09;;;;;;;7.60;3.63;;;;;;;17.56;72.72;97699.69;5039077;28;20044;-68
2022/08/29 07:57:35;;;;;;;9.70;4.13;;;;;;;17.64;73.68;97690.03;5038899;28;20052;-70
2022/08/29 08:00:09;;;;;;;7.03;3.00;;;;;;;17.83;73.45;97695.56;5040886;28;20041;-68
2022/08/29 08:02:37;;;;;;;11.90;5.03;;;;;;;18.00;73.32;97689.63;5044693;28;20051;-68
2022/08/29 08:05:05;;;;;;;6.63;3.33;;;;;;;18.16;72.33;97693.00;5037398;28;20044;-70
2022/08/29 08:07:33;;;;;;;7.70;4.20;;;;;;;18.32;73.17;97692.81;5047115;28;20041;-68
2022/08/29 08:10:00;;;;;;;7.13;4.22;;;;;;;18.55;73.75;97690.28;5047490;28;20067;-70
2022/08/29 08:12:28;;;;;;;8.23;3.88;;;;;;;18.59;71.85;97692.16;5047407;28;20143;-68
2022/08/29 08:14:55;;;;;;;9.60;3.88;;;;;;;18.72;72.08;97689.75;5051153;28;20058;-71
2022/08/29 08:17:22;;;;;;;8.65;4.18;;;;;;;18.74;71.57;97690.28;5044839;28;21032;-71
2022/08/29 08:19:49;;;;;;;9.45;3.75;;;;;;;18.88;72.06;97693.09;5034587;28;20030;-68
2022/08/29 08:22:15;;;;;;;7.68;4.22;;;;;;;19.00;70.91;97700.03;5040577;28;20429;-68
2022/08/29 08:24:42;;;;;;;9.82;4.40;;;;;;;19.12;72.18;97696.84;5030411;28;20571;-68
2022/08/29 08:27:08;;;;;;;9.85;4.20;;;;;;;19.17;70.46;97699.50;5042618;28;20048;-70
2022/08/29 08:29:35;;;;;;;6.95;3.80;;;;;;;19.17;70.06;97692.06;5033757;28;20049;-71
2022/08/29 08:32:02;;;;;;;8.20;3.50;;;;;;;19.29;70.04;97691.63;5039020;28;20113;-68
2022/08/29 08:34:29;;;;;;;8.68;3.88;;;;;;;19.44;70.08;97698.75;5040036;28;20041;-70
2022/08/29 08:36:55;;;;;;;9.25;4.25;;;;;;;19.52;69.86;97699.97;5039036;28;20103;-68
2022/08/29 08:39:22;;;;;;;7.35;4.18;;;;;;;19.56;68.96;97700.19;5042995;28;20718;-68
2022/08/29 08:42:03;;;;;;;6.75;3.92;;;;;;;19.67;68.91;97700.81;5039546;28;20036;-69
2022/08/29 08:44:52;;;;;;;7.68;4.20;;;;;;;19.79;68.66;97701.13;5046286;28;20079;-68
2022/08/29 08:47:27;;;;;;;8.55;4.30;;;;;;;19.87;68.94;97707.84;5066441;28;20055;-70
2022/08/29 08:49:59;;;;;;;9.05;3.90;;;;;;;19.98;67.65;97706.53;5066478;28;20045;-68
2022/08/29 08:52:51;;;;;;;8.25;3.92;;;;;;;19.96;68.44;97708.75;5039042;28;20098;-68
2022/08/29 08:55:27;;;;;;;8.40;4.00;;;;;;;20.06;68.86;97710.53;5037390;28;20144;-68
2022/08/29 08:58:04;;;;;;;11.50;5.10;;;;;;;20.14;67.93;97700.72;5030917;28;20997;-67
2022/08/29 09:00:40;;;;;;;11.88;5.43;;;;;;;20.20;67.94;97702.25;5042651;28;20037;-68
2022/08/29 09:03:25;;;;;;;7.97;4.10;;;;;;;20.37;68.65;97706.28;5039704;28;20041;-68
2022/08/29 09:06:09;;;;;;;10.18;4.68;;;;;;;20.35;66.96;97703.84;5034504;28;20463;-69
2022/08/29 09:08:49;;;;;;;9.30;5.13;;;;;;;20.40;67.95;97703.75;5026516;28;20041;-71
2022/08/29 09:11:44;;;;;;;7.50;4.45;;;;;;;20.50;67.50;97713.69;5026587;28;20099;-69
2022/08/29 09:14:25;;;;;;;13.68;5.55;;;;;;;20.72;67.84;97714.06;5026674;28;20046;-68
2022/08/29 09:16:57;;;;;;;10.52;3.97;;;;;;;20.80;66.73;97714.13;5083517;28;20470;-71
2022/08/29 09:19:25;;;;;;;10.10;4.35;;;;;;;20.78;66.13;97721.88;5045939;28;20041;-70
2022/08/29 09:21:57;;;;;;;9.88;4.05;;;;;;;20.82;66.26;97711.06;5058645;28;20125;-68
2022/08/29 09:25:01;;;;;;;8.77;4.15;;;;;;;20.87;66.08;97708.25;5065885;28;20127;-70
2022/08/29 09:27:30;;;;;;;8.68;5.00;;;;;;;21.03;65.87;97716.09;5023719;28;20053;-69
2022/08/29 09:30:02;;;;;;;9.27;4.35;;;;;;;21.15;65.03;97713.59;5058239;28;20053;-68
2022/08/29 09:32:29;;;;;;;8.88;4.75;;;;;;;21.23;63.93;97722.25;5065969;28;20048;-68
2022/08/29 09:34:55;;;;;;;7.43;4.15;;;;;;;21.24;64.06;97710.09;5059650;28;20059;-68
2022/08/29 09:37:34;;;;;;;10.90;5.53;;;;;;;21.27;63.73;97714.97;5045457;28;20044;-67
2022/08/29 09:40:09;;;;;;;9.40;4.90;;;;;;;21.47;64.83;97710.88;5045090;28;20048;-68
2022/08/29 09:42:40;;;;;;;10.57;5.20;;;;;;;21.66;64.11;97705.13;5034835;28;20707;-67
2022/08/29 09:45:23;;;;;;;9.00;4.70;;;;;;;21.83;63.41;97712.69;5045947;28;20049;-70
2022/08/29 09:48:16;;;;;;;9.77;5.00;;;;;;;21.65;63.65;97714.53;5040245;28;20043;-69
2022/08/29 09:50:43;;;;;;;9.00;4.68;;;;;;;21.80;62.19;97718.03;5026343;28;20057;-68
2022/08/29 09:53:10;;;;;;;8.55;4.30;;;;;;;21.86;62.91;97711.25;5065853;28;20056;-68
2022/08/29 09:55:51;;;;;;;12.88;4.97;;;;;;;21.92;61.04;97703.63;5065539;28;20048;-69
2022/08/29 09:58:18;;;;;;;8.50;4.50;;;;;;;22.03;61.76;97704.97;5066120;28;20044;-69
2022/08/29 10:01:00;;;;;;;9.85;4.75;;;;;;;22.06;60.01;97698.84;5065509;28;20045;-69
2022/08/29 10:03:31;;;;;;;7.80;4.38;;;;;;;22.16;61.90;97700.47;5043587;28;20049;-69
2022/08/29 10:06:22;;;;;;;7.93;4.78;;;;;;;22.25;61.26;97699.69;5042176;28;20102;-69
2022/08/29 10:08:58;;;;;;;7.65;4.28;;;;;;;22.26;61.99;97693.81;5049440;28;20105;-69
2022/08/29 10:11:34;;;;;;;7.97;4.50;;;;;;;22.31;61.17;97701.16;5049167;28;20052;-69
2022/08/29 10:14:11;;;;;;;8.27;3.75;;;;;;;22.34;60.72;97693.03;5049122;28;20381;-69
2022/08/29 10:16:51;;;;;;;7.82;4.32;;;;;;;22.50;60.58;97697.28;5054591;28;20068;-69
2022/08/29 10:19:25;;;;;;;7.68;3.83;;;;;;;22.68;59.54;97701.72;5045895;28;20041;-71
2022/08/29 10:22:26;;;;;;;7.85;4.22;;;;;;;22.84;58.62;97695.69;5045547;28;20091;-69
2022/08/29 10:25:12;;;;;;;10.43;3.72;;;;;;;22.87;57.97;97703.31;5043190;28;20051;-67
2022/08/29 10:27:38;;;;;;;10.07;4.40;;;;;;;22.85;59.18;97706.41;5035078;28;20049;-66
2022/08/29 10:30:09;;;;;;;8.60;4.43;;;;;;;22.94;59.18;97702.84;5038874;28;20080;-66
2022/08/29 10:32:39;;;;;;;8.60;4.15;;;;;;;22.89;58.24;97705.75;5043008;28;20063;-66
2022/08/29 10:35:13;;;;;;;11.10;4.80;;;;;;;22.76;58.92;97694.56;5040133;28;20106;-66
2022/08/29 10:37:57;;;;;;;8.95;4.13;;;;;;;22.67;58.10;97699.28;5028604;28;20045;-67
2022/08/29 10:40:41;;;;;;;11.05;4.35;;;;;;;22.68;58.80;97701.72;5047375;28;20060;-66
2022/08/29 10:43:32;;;;;;;8.73;4.63;;;;;;;22.80;57.69;97691.94;5049027;28;20518;-67
2022/08/29 10:46:06;;;;;;;9.90;3.95;;;;;;;22.86;57.14;97704.47;5060938;28;20052;-67
2022/08/29 10:49:02;;;;;;;8.05;3.75;;;;;;;22.99;57.10;97692.44;5064298;28;20043;-66
2022/08/29 10:52:02;;;;;;;7.40;4.32;;;;;;;23.02;56.07;97693.72;5044527;28;20041;-67
2022/08/29 10:54:28;;;;;;;9.05;4.20;;;;;;;22.92;57.39;97686.59;5017455;28;20053;-67
2022/08/29 10:56:56;;;;;;;7.97;3.90;;;;;;;22.99;56.81;97697.97;5044508;28;20052;-67
2022/08/29 10:59:51;;;;;;;8.35;4.03;;;;;;;23.00;55.48;97694.06;5048487;28;20531;-66
2022/08/29 11:02:17;;;;;;;6.30;3.85;;;;;;;23.07;54.47;97690.78;5031821;28;20524;-67
2022/08/29 11:04:52;;;;;;;5.80;3.40;;;;;;;23.11;56.03;97693.75;5028824;28;20425;-67
2022/08/29 11:07:28;;;;;;;9.52;4.22;;;;;;;23.08;55.83;97686.09;5028253;28;20095;-67
2022/08/29 11:10:03;;;;;;;7.15;3.63;;;;;;;23.14;53.39;97682.00;5028784;28;20072;-67
2022/08/29 11:12:40;;;;;;;7.85;4.18;;;;;;;23.39;54.10;97685.06;5032162;28;20041;-67
2022/08/29 11:15:37;;;;;;;8.45;4.15;;;;;;;23.40;53.86;97683.13;5038390;28;20091;-67
2022/08/29 11:18:16;;;;;;;7.45;3.47;;;;;;;23.34;53.57;97682.50;5042880;28;20749;-67
2022/08/29 11:20:55;;;;;;;8.13;3.83;;;;;;;23.26;54.48;97676.63;5042394;28;20033;-67
2022/08/29 11:23:31;;;;;;;7.68;4.18;;;;;;;23.21;53.80;97675.97;5040068;28;20051;-67
2022/08/29 11:26:03;;;;;;;7.30;3.85;;;;;;;23.34;53.46;97672.28;5048100;28;20110;-67
2022/08/29 11:28:49;;;;;;;8.88;3.92;;;;;;;23.35;52.60;97673.06;5048104;28;20055;-67
2022/08/29 11:31:46;;;;;;;5.88;3.35;;;;;;;23.43;50.98;97674.19;5047800;28;20041;-66
2022/08/29 11:34:44;;;;;;;5.68;3.53;;;;;;;23.57;51.61;97673.97;5048302;28;20083;-67
2022/08/29 11:37:29;;;;;;;7.40;3.67;;;;;;;23.33;52.38;97667.84;5048141;28;20064;-67
2022/08/29 11:40:02;;;;;;;13.35;8.32;;;;;;;23.41;50.89;97666.22;5047991;28;20126;-67
2022/08/29 11:42:34;;;;;;;8.68;4.90;;;;;;;23.59;51.27;97669.72;5048340;28;20041;-67
2022/08/29 11:45:31;;;;;;;6.88;3.55;;;;;;;23.82;50.90;97663.13;5053833;28;20048;-67